Time;durP1;ratioP1;P1;durP2;ratioP2;P2;SDS_P1;SDS_P2;PMS_P1;PMS_P2;Temp;Humidity;BMP_temperature;BMP_pressure;BME280_temperature;BME280_humidity;BME280_pressure;Samples;Min_cycle;Max_cycle;Signal;HPM_P1;HPM_P2
2022/12/04 00:02:04;;;;;;;20.90;9.95;;;;;;;-144.57;100.00;62443.72;4900641;29;20047;-72
2022/12/04 00:04:30;;;;;;;23.58;9.95;;;;;;;-144.57;100.00;62443.72;4900307;29;20055;-72
2022/12/04 00:06:56;;;;;;;19.45;9.82;;;;;;;-144.57;100.00;62443.72;4900558;29;20071;-70
2022/12/04 00:09:22;;;;;;;18.88;10.35;;;;;;;-144.57;100.00;62443.72;4915884;29;20425;-71
2022/12/04 00:11:48;;;;;;;23.77;11.35;;;;;;;-144.57;100.00;62443.72;4900077;29;20044;-69
2022/12/04 00:14:13;;;;;;;20.52;10.20;;;;;;;-144.57;100.00;62443.72;4915916;29;20052;-70
2022/12/04 00:16:39;;;;;;;18.48;9.98;;;;;;;-144.57;100.00;62443.72;4900148;29;20044;-71
2022/12/04 00:19:05;;;;;;;19.45;10.90;;;;;;;-144.57;100.00;62443.72;4917006;29;20055;-70
2022/12/04 00:21:31;;;;;;;18.27;9.43;;;;;;;-144.57;100.00;62443.72;4899940;29;20040;-70
2022/12/04 00:23:56;;;;;;;25.65;10.93;;;;;;;-144.57;100.00;62443.72;4915418;29;20048;-70
2022/12/04 00:26:24;;;;;;;20.10;11.00;;;;;;;-144.57;100.00;62443.72;4915632;29;20055;-71
2022/12/04 00:28:50;;;;;;;26.95;11.30;;;;;;;-144.57;100.00;62443.72;4915412;29;20099;-69
2022/12/04 00:31:21;;;;;;;23.08;11.27;;;;;;;-144.57;100.00;62443.72;4899702;29;20047;-70
2022/12/04 00:33:46;;;;;;;24.55;11.57;;;;;;;-144.57;100.00;62443.72;4915747;29;20055;-71
2022/12/04 00:36:15;;;;;;;27.67;12.95;;;;;;;-144.57;100.00;62443.72;4915516;29;20510;-70
2022/12/04 00:38:44;;;;;;;25.55;11.60;;;;;;;-144.57;100.00;62443.72;4899571;29;20052;-71
2022/12/04 00:41:15;;;;;;;23.50;12.57;;;;;;;-144.57;100.00;62443.72;4915228;29;20044;-71
2022/12/04 00:43:41;;;;;;;22.00;11.45;;;;;;;-144.57;100.00;62443.72;4915578;29;20054;-72
2022/12/04 00:46:08;;;;;;;21.63;10.80;;;;;;;-144.57;100.00;62443.72;4915323;29;20075;-72
2022/12/04 00:48:33;;;;;;;24.27;11.88;;;;;;;-144.57;100.00;62443.72;4915171;29;20051;-71
2022/12/04 00:51:03;;;;;;;24.48;11.27;;;;;;;-144.57;100.00;62443.72;4899298;29;20139;-71
2022/12/04 00:53:29;;;;;;;23.17;11.20;;;;;;;-144.57;100.00;62443.72;4915164;29;20315;-70
2022/12/04 00:55:55;;;;;;;25.35;11.93;;;;;;;-144.57;100.00;62443.72;4930593;28;20305;-72
2022/12/04 00:58:20;;;;;;;25.38;12.13;;;;;;;-144.57;100.00;62443.72;4937126;29;20043;-73
2022/12/04 01:00:46;;;;;;;23.58;11.77;;;;;;;-144.57;100.00;62443.72;4937467;29;20398;-74
2022/12/04 01:03:12;;;;;;;24.98;13.30;;;;;;;-144.57;100.00;62443.72;4921366;29;20402;-71
2022/12/04 01:05:39;;;;;;;30.85;12.63;;;;;;;-144.57;100.00;62443.72;4937229;29;20035;-73
2022/12/04 01:08:05;;;;;;;27.80;12.57;;;;;;;-144.57;100.00;62443.72;4937033;29;20505;-72
2022/12/04 01:10:31;;;;;;;22.52;11.48;;;;;;;-144.57;100.00;62443.72;4905495;29;20082;-72
2022/12/04 01:12:57;;;;;;;25.02;12.35;;;;;;;-144.57;100.00;62443.72;4921068;29;20070;-71
2022/12/04 01:15:23;;;;;;;30.02;12.95;;;;;;;-144.57;100.00;62443.72;4936337;29;20039;-70
2022/12/04 01:17:49;;;;;;;21.90;10.82;;;;;;;-144.57;100.00;62443.72;4936731;29;20220;-71
2022/12/04 01:20:15;;;;;;;23.75;11.68;;;;;;;-144.57;100.00;62443.72;4921170;29;20039;-73
2022/12/04 01:22:41;;;;;;;23.02;11.27;;;;;;;-144.57;100.00;62443.72;4953964;29;20071;-73
2022/12/04 01:25:08;;;;;;;27.38;11.90;;;;;;;-144.57;100.00;62443.72;4936831;29;20078;-72
2022/12/04 01:27:34;;;;;;;21.77;10.85;;;;;;;-144.57;100.00;62443.72;4921051;29;20075;-73
2022/12/04 01:30:00;;;;;;;22.42;9.93;;;;;;;-144.57;100.00;62443.72;4905476;29;20058;-71
2022/12/04 01:32:26;;;;;;;21.23;10.95;;;;;;;-144.57;100.00;62443.72;4936686;29;20449;-71
2022/12/04 01:34:52;;;;;;;25.67;11.88;;;;;;;-144.57;100.00;62443.72;4921486;29;20075;-71
2022/12/04 01:37:17;;;;;;;22.98;11.40;;;;;;;-144.57;100.00;62443.72;4936778;29;20174;-71
2022/12/04 01:39:43;;;;;;;21.20;10.93;;;;;;;-144.57;100.00;62443.72;4920922;29;20054;-71
2022/12/04 01:42:14;;;;;;;24.42;11.68;;;;;;;-144.57;100.00;62443.72;4936462;29;20054;-71
2022/12/04 01:45:21;;;;;;;20.65;11.30;;;;;;;-144.57;100.00;62443.72;4953956;29;20054;-71
2022/12/04 01:47:47;;;;;;;16.42;9.52;;;;;;;-144.57;100.00;62443.72;4954347;29;20573;-70
2022/12/04 01:50:12;;;;;;;19.92;10.88;;;;;;;-144.57;100.00;62443.72;4921066;29;20171;-71
2022/12/04 01:52:38;;;;;;;22.27;10.65;;;;;;;-144.57;100.00;62443.72;4936317;29;20492;-71
2022/12/04 01:55:05;;;;;;;26.33;10.75;;;;;;;-144.57;100.00;62443.72;4936495;29;20043;-70
2022/12/04 01:57:31;;;;;;;20.60;10.50;;;;;;;-144.57;100.00;62443.72;4936375;29;20055;-72
2022/12/04 02:00:10;;;;;;;22.35;11.18;;;;;;;-144.57;100.00;62443.72;4904685;29;20066;-71
2022/12/04 02:02:38;;;;;;;20.77;10.48;;;;;;;-144.57;100.00;62443.72;4920594;29;20396;-70
2022/12/04 02:05:08;;;;;;;20.13;10.55;;;;;;;-144.57;100.00;62443.72;4920581;29;20463;-70
2022/12/04 02:07:35;;;;;;;21.02;10.20;;;;;;;-144.57;100.00;62443.72;4953588;29;20130;-70
2022/12/04 02:10:05;;;;;;;20.95;9.88;;;;;;;-144.57;100.00;62443.72;4920773;29;20471;-71
2022/12/04 02:12:50;;;;;;;22.42;10.27;;;;;;;-144.57;100.00;62443.72;4936237;29;20051;-71
2022/12/04 02:15:22;;;;;;;19.90;9.48;;;;;;;-144.57;100.00;62443.72;4936438;29;20057;-69
2022/12/04 02:18:18;;;;;;;21.15;10.13;;;;;;;-144.57;100.00;62443.72;4920484;29;20061;-71
2022/12/04 02:21:15;;;;;;;20.60;10.68;;;;;;;-144.57;100.00;62443.72;4920345;29;20129;-71
2022/12/04 02:24:16;;;;;;;17.92;9.82;;;;;;;-144.57;100.00;62443.72;4935739;29;20153;-71
2022/12/04 02:26:45;;;;;;;23.98;10.68;;;;;;;-144.57;100.00;62443.72;4920137;28;20095;-70
2022/12/04 02:29:31;;;;;;;18.83;10.40;;;;;;;-144.57;100.00;62443.72;4939134;29;20043;-70
2022/12/04 02:32:19;;;;;;;22.52;10.95;;;;;;;-144.57;100.00;62443.72;4956996;29;20126;-71
2022/12/04 02:35:05;;;;;;;19.00;10.20;;;;;;;-144.57;100.00;62443.72;4940055;29;20093;-71
2022/12/04 02:37:43;;;;;;;20.33;9.20;;;;;;;-144.57;100.00;62443.72;4924028;29;20038;-70
2022/12/04 02:40:16;;;;;;;18.55;10.52;;;;;;;-144.57;100.00;62443.72;4924019;29;20047;-71
2022/12/04 02:42:45;;;;;;;23.35;11.10;;;;;;;-144.57;100.00;62443.72;4939780;29;20047;-70
2022/12/04 02:45:14;;;;;;;23.42;10.15;;;;;;;-144.57;100.00;62443.72;4939832;29;20142;-70
2022/12/04 02:47:41;;;;;;;23.08;10.32;;;;;;;-144.57;100.00;62443.72;4923821;29;20107;-71
2022/12/04 02:50:13;;;;;;;20.08;9.98;;;;;;;-144.57;100.00;62443.72;4908102;29;20073;-70
2022/12/04 02:52:45;;;;;;;17.95;8.88;;;;;;;-144.57;100.00;62443.72;4923593;29;20052;-70
2022/12/04 02:55:23;;;;;;;22.38;10.73;;;;;;;-144.57;100.00;62443.72;4939775;29;20047;-70
2022/12/04 02:57:52;;;;;;;22.17;10.05;;;;;;;-144.57;100.00;62443.72;4957271;28;20094;-71
2022/12/04 03:00:20;;;;;;;17.38;10.02;;;;;;;-144.57;100.00;62443.72;4923564;29;20536;-70
2022/12/04 03:02:55;;;;;;;18.50;9.93;;;;;;;-144.57;100.00;62443.72;4923586;29;20047;-71
2022/12/04 03:05:32;;;;;;;20.23;9.82;;;;;;;-144.57;100.00;62443.72;4923736;29;20047;-71
2022/12/04 03:08:03;;;;;;;16.45;9.43;;;;;;;-144.57;100.00;62443.72;4923527;29;20082;-71
2022/12/04 03:10:33;;;;;;;19.60;9.18;;;;;;;-144.57;100.00;62443.72;4939545;29;20051;-71
2022/12/04 03:13:06;;;;;;;20.50;10.03;;;;;;;-144.57;100.00;62443.72;4907435;29;20090;-71
2022/12/04 03:15:33;;;;;;;21.38;9.88;;;;;;;-144.57;100.00;62443.72;4956215;29;20055;-71
2022/12/04 03:18:22;;;;;;;25.08;9.93;;;;;;;-144.57;100.00;62443.72;4938989;29;20051;-71
2022/12/04 03:20:51;;;;;;;23.48;11.07;;;;;;;-144.57;100.00;62443.72;4931917;29;20516;-71
2022/12/04 03:23:21;;;;;;;23.33;10.18;;;;;;;-144.57;100.00;62443.72;4923077;29;20078;-70
2022/12/04 03:25:56;;;;;;;21.92;10.20;;;;;;;-144.57;100.00;62443.72;4923731;29;20095;-71
2022/12/04 03:28:32;;;;;;;19.40;10.10;;;;;;;-144.57;100.00;62443.72;4923368;29;20051;-70
2022/12/04 03:31:03;;;;;;;19.73;9.85;;;;;;;-144.57;100.00;62443.72;4923002;29;20390;-70
2022/12/04 03:33:37;;;;;;;23.80;10.35;;;;;;;-144.57;100.00;62443.72;4922924;29;20046;-71
2022/12/04 03:36:17;;;;;;;20.63;10.63;;;;;;;-144.57;100.00;62443.72;4956343;29;20133;-71
2022/12/04 03:38:49;;;;;;;19.38;10.38;;;;;;;-144.57;100.00;62443.72;4938366;29;20043;-71
2022/12/04 03:41:18;;;;;;;27.13;11.45;;;;;;;-144.57;100.00;62443.72;4938686;29;20077;-71
2022/12/04 03:44:03;;;;;;;18.50;10.07;;;;;;;-144.57;100.00;62443.72;4938537;29;20058;-71
2022/12/04 03:46:58;;;;;;;21.88;9.55;;;;;;;-144.57;100.00;62443.72;4938642;29;20524;-71
2022/12/04 03:49:28;;;;;;;18.90;9.93;;;;;;;-144.57;100.00;62443.72;4952980;29;20479;-71
2022/12/04 03:52:40;;;;;;;22.58;9.63;;;;;;;-144.57;100.00;62443.72;4922546;29;20094;-70
2022/12/04 03:55:25;;;;;;;18.35;9.07;;;;;;;-144.57;100.00;62443.72;4916779;29;20539;-70
2022/12/04 03:57:56;;;;;;;17.25;9.18;;;;;;;-144.57;100.00;62443.72;4938383;29;20338;-70
2022/12/04 04:00:22;;;;;;;16.23;9.75;;;;;;;-144.57;100.00;62443.72;4906816;29;20051;-71
2022/12/04 04:02:58;;;;;;;26.15;9.25;;;;;;;-144.57;100.00;62443.72;4906725;29;20054;-71
2022/12/04 04:05:26;;;;;;;19.30;9.63;;;;;;;-144.57;100.00;62443.72;4906915;29;20039;-71
2022/12/04 04:07:55;;;;;;;23.00;9.65;;;;;;;-144.57;100.00;62443.72;4955104;29;20047;-70
2022/12/04 04:10:24;;;;;;;18.30;8.30;;;;;;;-144.57;100.00;62443.72;4922606;29;20043;-71
2022/12/04 04:24:14;;;;;;;16.73;9.02;;;;;;;-144.57;100.00;62443.72;4940610;29;20047;-72
2022/12/04 04:26:44;;;;;;;19.67;9.10;;;;;;;-144.57;100.00;62443.72;4907587;29;20063;-73
2022/12/04 04:29:10;;;;;;;20.38;10.27;;;;;;;-144.57;100.00;62443.72;4937910;29;20047;-72
2022/12/04 04:31:44;;;;;;;19.40;8.73;;;;;;;-144.57;100.00;62443.72;4906361;29;20094;-73
2022/12/04 04:34:22;;;;;;;21.88;10.57;;;;;;;-144.57;100.00;62443.72;4921765;29;20479;-74
2022/12/04 04:37:04;;;;;;;23.00;9.50;;;;;;;-144.57;100.00;62443.72;4937505;29;20047;-74
2022/12/04 04:39:34;;;;;;;20.88;9.13;;;;;;;-144.57;100.00;62443.72;4921869;29;20402;-74
2022/12/04 04:42:12;;;;;;;17.15;9.30;;;;;;;-144.57;100.00;62443.72;4923564;29;20061;-76
2022/12/04 04:44:40;;;;;;;22.95;9.52;;;;;;;-144.57;100.00;62443.72;4957069;29;20087;-77
2022/12/04 04:47:09;;;;;;;18.60;9.35;;;;;;;-144.57;100.00;62443.72;4938089;29;20110;-74
2022/12/04 04:49:36;;;;;;;17.25;8.88;;;;;;;-144.57;100.00;62443.72;4909408;29;20082;-71
2022/12/04 04:52:02;;;;;;;19.30;8.70;;;;;;;-144.57;100.00;62443.72;4926548;29;20063;-72
2022/12/04 04:54:29;;;;;;;16.25;8.18;;;;;;;-144.57;100.00;62443.72;4893695;29;20047;-65
2022/12/04 04:56:54;;;;;;;21.33;10.13;;;;;;;-144.57;100.00;62443.72;4953239;29;20059;-72
2022/12/04 04:59:20;;;;;;;21.52;9.27;;;;;;;-144.57;100.00;62443.72;4954344;29;20055;-73
2022/12/04 05:01:46;;;;;;;21.80;9.25;;;;;;;-144.57;100.00;62443.72;4954067;29;20090;-72
2022/12/04 05:04:12;;;;;;;17.33;8.68;;;;;;;-144.57;100.00;62443.72;4936901;29;20124;-70
2022/12/04 05:06:40;;;;;;;18.00;9.48;;;;;;;-144.57;100.00;62443.72;4936991;29;20484;-77
2022/12/04 05:09:07;;;;;;;21.02;9.65;;;;;;;-144.57;100.00;62443.72;4920827;29;20066;-76
2022/12/04 05:11:33;;;;;;;22.48;8.80;;;;;;;-144.57;100.00;62443.72;4920969;29;20054;-76
2022/12/04 05:13:59;;;;;;;19.40;9.25;;;;;;;-144.57;100.00;62443.72;4916639;29;20039;-71
2022/12/04 05:16:25;;;;;;;17.48;8.82;;;;;;;-144.57;100.00;62443.72;4936831;29;20412;-72
2022/12/04 05:21:35;;;;;;;17.90;8.98;;;;;;;-144.57;100.00;62443.72;4953689;29;20207;-69
2022/12/04 05:24:01;;;;;;;15.77;9.13;;;;;;;-144.57;100.00;62443.72;4953468;29;20059;-73
2022/12/04 05:26:27;;;;;;;21.63;9.75;;;;;;;-144.57;100.00;62443.72;4935913;29;20394;-70
2022/12/04 05:28:52;;;;;;;20.83;9.25;;;;;;;-144.57;100.00;62443.72;4953422;29;20055;-71
2022/12/04 05:31:18;;;;;;;14.32;8.95;;;;;;;-144.57;100.00;62443.72;4953590;29;20045;-72
2022/12/04 05:33:44;;;;;;;19.73;9.10;;;;;;;-144.57;100.00;62443.72;4904579;29;20087;-70
2022/12/04 05:36:10;;;;;;;20.55;9.07;;;;;;;-144.57;100.00;62443.72;4920399;29;20129;-72
2022/12/04 05:38:36;;;;;;;21.42;9.00;;;;;;;-144.57;100.00;62443.72;4935904;29;20061;-72
2022/12/04 05:41:04;;;;;;;18.25;8.80;;;;;;;-144.57;100.00;62443.72;4920170;29;20043;-74
2022/12/04 05:43:30;;;;;;;17.80;8.77;;;;;;;-144.57;100.00;62443.72;4904670;29;20063;-75
2022/12/04 05:46:00;;;;;;;18.67;8.35;;;;;;;-144.57;100.00;62443.72;4936037;29;20047;-75
2022/12/04 05:48:26;;;;;;;19.25;7.93;;;;;;;-144.57;100.00;62443.72;4953077;29;20047;-75
2022/12/04 05:50:52;;;;;;;17.25;9.20;;;;;;;-144.57;100.00;62443.72;4935864;29;20066;-75
2022/12/04 05:53:18;;;;;;;19.40;9.40;;;;;;;-144.57;100.00;62443.72;4920050;29;20047;-75
2022/12/04 05:55:44;;;;;;;18.00;8.07;;;;;;;-144.57;100.00;62443.72;4935365;29;20063;-74
2022/12/04 05:58:09;;;;;;;18.50;9.30;;;;;;;-144.57;100.00;62443.72;4919940;29;20130;-71
2022/12/04 06:00:36;;;;;;;22.88;9.48;;;;;;;-144.57;100.00;62443.72;4953387;29;20485;-77
2022/12/04 06:03:03;;;;;;;18.67;8.48;;;;;;;-144.57;100.00;62443.72;4904493;29;20393;-77
2022/12/04 06:05:28;;;;;;;14.10;7.78;;;;;;;-144.57;100.00;62443.72;4935931;29;20126;-77
2022/12/04 06:07:54;;;;;;;15.15;8.57;;;;;;;-144.57;100.00;62443.72;4935930;29;20066;-75
2022/12/04 06:10:20;;;;;;;17.45;7.90;;;;;;;-144.57;100.00;62443.72;4919727;29;20043;-74
2022/12/04 06:12:47;;;;;;;16.17;7.95;;;;;;;-144.57;100.00;62443.72;4920021;29;20051;-76
2022/12/04 06:15:13;;;;;;;18.95;8.52;;;;;;;-144.57;100.00;62443.72;4904191;29;20082;-74
2022/12/04 06:17:39;;;;;;;22.42;8.77;;;;;;;-144.57;100.00;62443.72;4953110;29;20228;-73
2022/12/04 06:20:05;;;;;;;23.45;8.07;;;;;;;-144.57;100.00;62443.72;4935543;29;20043;-75
2022/12/04 06:22:31;;;;;;;17.55;8.40;;;;;;;-144.57;100.00;62443.72;4935449;29;20138;-72
2022/12/04 06:24:56;;;;;;;17.92;9.05;;;;;;;-144.57;100.00;62443.72;4952588;29;20461;-71
2022/12/04 06:27:22;;;;;;;22.35;8.73;;;;;;;-144.57;100.00;62443.72;4919688;29;20043;-72
2022/12/04 06:29:48;;;;;;;17.67;8.52;;;;;;;-144.57;100.00;62443.72;4935456;29;20055;-72
2022/12/04 06:32:14;;;;;;;19.58;8.88;;;;;;;-144.57;100.00;62443.72;4919731;29;20046;-71
2022/12/04 06:34:40;;;;;;;19.55;8.48;;;;;;;-144.57;100.00;62443.72;4935297;29;20058;-72
2022/12/04 06:37:06;;;;;;;18.85;8.73;;;;;;;-144.57;100.00;62443.72;4919698;29;20047;-72
2022/12/04 06:39:31;;;;;;;22.13;8.38;;;;;;;-144.57;100.00;62443.72;4952045;29;20079;-73
2022/12/04 06:41:57;;;;;;;19.92;8.55;;;;;;;-144.57;100.00;62443.72;4935643;29;20043;-72
2022/12/04 06:44:23;;;;;;;13.48;7.80;;;;;;;-144.57;100.00;62443.72;4935559;29;20563;-75
2022/12/04 06:46:48;;;;;;;16.70;7.90;;;;;;;-144.57;100.00;62443.72;4935561;29;20508;-73
2022/12/04 06:49:14;;;;;;;14.00;8.05;;;;;;;-144.57;100.00;62443.72;4935151;29;20097;-74
2022/12/04 06:51:40;;;;;;;18.08;8.10;;;;;;;-144.57;100.00;62443.72;4903952;29;20062;-74
2022/12/04 06:54:06;;;;;;;18.00;8.45;;;;;;;-144.57;100.00;62443.72;4934779;29;20526;-75
2022/12/04 06:56:32;;;;;;;21.48;8.57;;;;;;;-144.57;100.00;62443.72;4934957;29;20142;-73
2022/12/04 06:58:59;;;;;;;16.08;7.18;;;;;;;-144.57;100.00;62443.72;4935161;29;20054;-73
2022/12/04 07:01:27;;;;;;;14.40;7.78;;;;;;;-144.57;100.00;62443.72;4952608;29;20422;-72
2022/12/04 07:03:54;;;;;;;15.00;7.63;;;;;;;-144.57;100.00;62443.72;4935500;29;20047;-73
2022/12/04 07:06:28;;;;;;;15.07;7.97;;;;;;;-144.57;100.00;62443.72;4935634;29;20062;-75
2022/12/04 07:09:02;;;;;;;16.67;8.30;;;;;;;-144.57;100.00;62443.72;4935512;29;20070;-74
2022/12/04 07:11:28;;;;;;;18.83;7.82;;;;;;;-144.57;100.00;62443.72;4952275;29;20054;-73
2022/12/04 07:13:54;;;;;;;16.05;7.45;;;;;;;-144.57;100.00;62443.72;4935814;29;20046;-72
2022/12/04 07:16:21;;;;;;;20.60;8.05;;;;;;;-144.57;100.00;62443.72;4939061;29;20047;-72
2022/12/04 07:18:52;;;;;;;15.30;7.70;;;;;;;-144.57;100.00;62443.72;4922435;29;20440;-70
2022/12/04 07:21:21;;;;;;;15.50;8.18;;;;;;;-144.57;100.00;62443.72;4939541;29;20083;-71
2022/12/04 07:23:50;;;;;;;17.48;8.13;;;;;;;-144.57;100.00;62443.72;4955426;29;20135;-72
2022/12/04 07:26:17;;;;;;;17.75;8.00;;;;;;;-144.57;100.00;62443.72;4923049;29;20054;-74
2022/12/04 07:28:44;;;;;;;16.80;7.50;;;;;;;-144.57;100.00;62443.72;4938522;29;20039;-77
2022/12/04 07:31:13;;;;;;;17.08;7.40;;;;;;;-144.57;100.00;62443.72;4938438;29;20105;-73
2022/12/04 07:33:39;;;;;;;14.63;7.70;;;;;;;-144.57;100.00;62443.72;4955616;29;20090;-70
2022/12/04 07:36:07;;;;;;;16.27;7.18;;;;;;;-144.57;100.00;62443.72;4955361;29;20043;-70
2022/12/04 07:38:34;;;;;;;17.85;8.02;;;;;;;-144.57;100.00;62443.72;4922148;29;20106;-71
2022/12/04 07:41:02;;;;;;;21.75;7.80;;;;;;;-144.57;100.00;62443.72;4922552;29;20042;-74
2022/12/04 07:43:29;;;;;;;14.23;7.30;;;;;;;-144.57;100.00;62443.72;4906421;29;20054;-73
2022/12/04 07:45:55;;;;;;;15.48;7.53;;;;;;;-144.57;100.00;62443.72;4922406;29;20047;-73
2022/12/04 07:48:21;;;;;;;17.98;7.88;;;;;;;-144.57;100.00;62443.72;4922134;29;20137;-74
2022/12/04 07:50:47;;;;;;;16.45;7.18;;;;;;;-144.57;100.00;62443.72;4937953;29;20146;-72
2022/12/04 07:53:13;;;;;;;20.77;8.30;;;;;;;-144.57;100.00;62443.72;4954570;29;20122;-72
2022/12/04 07:55:38;;;;;;;14.95;7.80;;;;;;;-144.57;100.00;62443.72;4937815;29;20050;-72
2022/12/04 07:58:04;;;;;;;16.15;7.72;;;;;;;-144.57;100.00;62443.72;4937757;29;20059;-73
2022/12/04 08:00:30;;;;;;;15.35;7.65;;;;;;;-144.57;100.00;62443.72;4937571;29;20047;-73
2022/12/04 08:02:56;;;;;;;17.15;7.03;;;;;;;-144.57;100.00;62443.72;4938244;29;20248;-74
2022/12/04 08:05:21;;;;;;;18.70;7.43;;;;;;;-144.57;100.00;62443.72;4955282;29;20498;-71
2022/12/04 08:07:47;;;;;;;13.60;7.53;;;;;;;-144.57;100.00;62443.72;4937359;29;20089;-73
2022/12/04 08:10:14;;;;;;;12.90;6.85;;;;;;;-144.57;100.00;62443.72;4922145;29;20166;-72
2022/12/04 08:12:40;;;;;;;15.25;7.03;;;;;;;-144.57;100.00;62443.72;4937576;29;20511;-75
2022/12/04 08:15:07;;;;;;;12.57;6.20;;;;;;;-144.57;100.00;62443.72;4906497;29;20058;-72
2022/12/04 08:17:33;;;;;;;13.48;6.47;;;;;;;-144.57;100.00;62443.72;4922056;29;20043;-71
2022/12/04 08:20:00;;;;;;;14.60;6.93;;;;;;;-144.57;100.00;62443.72;4954493;29;20066;-71
2022/12/04 08:22:25;;;;;;;16.40;7.65;;;;;;;-144.57;100.00;62443.72;4954603;29;20042;-73
2022/12/04 08:24:51;;;;;;;16.00;7.47;;;;;;;-144.57;100.00;62443.72;4920865;29;20055;-69
2022/12/04 08:27:17;;;;;;;17.70;7.95;;;;;;;-144.57;100.00;62443.72;4920705;29;20039;-73
2022/12/04 08:29:42;;;;;;;17.38;7.18;;;;;;;-144.57;100.00;62443.72;4937200;29;20094;-74
2022/12/04 08:32:08;;;;;;;13.73;7.55;;;;;;;-144.57;100.00;62443.72;4954426;29;20509;-74
2022/12/04 08:34:34;;;;;;;18.30;7.32;;;;;;;-144.57;100.00;62443.72;4937256;29;20133;-73
2022/12/04 08:37:00;;;;;;;14.55;7.22;;;;;;;-144.57;100.00;62443.72;4937653;29;20469;-74
2022/12/04 08:39:26;;;;;;;19.83;7.90;;;;;;;-144.57;100.00;62443.72;4936690;29;20055;-76
2022/12/04 08:41:52;;;;;;;13.68;6.38;;;;;;;-144.57;100.00;62443.72;4905371;29;20039;-75
2022/12/04 08:44:18;;;;;;;15.35;7.38;;;;;;;-144.57;100.00;62443.72;4937266;29;20382;-73
2022/12/04 08:46:43;;;;;;;13.15;6.70;;;;;;;-144.57;100.00;62443.72;4936939;29;20054;-75
2022/12/04 08:49:13;;;;;;;17.35;7.10;;;;;;;-144.57;100.00;62443.72;4921226;29;20390;-75
2022/12/04 08:51:40;;;;;;;21.30;8.10;;;;;;;-144.57;100.00;62443.72;4905545;29;20050;-75
2022/12/04 08:54:07;;;;;;;16.40;7.25;;;;;;;-144.57;100.00;62443.72;4920673;29;20047;-75
2022/12/04 08:56:36;;;;;;;15.40;7.18;;;;;;;-144.57;100.00;62443.72;4920690;29;20055;-73
2022/12/04 08:59:02;;;;;;;17.25;7.90;;;;;;;-144.57;100.00;62443.72;4905216;29;20501;-73
2022/12/04 09:01:28;;;;;;;18.05;8.32;;;;;;;-144.57;100.00;62443.72;4920503;29;20043;-72
2022/12/04 09:03:56;;;;;;;14.95;7.93;;;;;;;-144.57;100.00;62443.72;4953894;29;20069;-77
2022/12/04 09:06:22;;;;;;;14.93;7.85;;;;;;;-144.57;100.00;62443.72;4936597;29;20054;-71
2022/12/04 09:08:52;;;;;;;14.10;7.10;;;;;;;-144.57;100.00;62443.72;4936386;29;20537;-71
2022/12/04 09:11:20;;;;;;;14.25;7.70;;;;;;;-144.57;100.00;62443.72;4936641;29;20082;-75
2022/12/04 09:13:46;;;;;;;14.88;7.18;;;;;;;-144.57;100.00;62443.72;4920572;29;20114;-74
2022/12/04 09:16:16;;;;;;;16.25;7.30;;;;;;;-144.57;100.00;62443.72;4953423;29;20075;-72
2022/12/04 09:18:43;;;;;;;13.10;5.85;;;;;;;-144.57;100.00;62443.72;4936294;29;20062;-75
2022/12/04 09:21:11;;;;;;;10.57;5.90;;;;;;;-144.57;100.00;62443.72;4936908;29;20090;-72
2022/12/04 09:23:38;;;;;;;13.07;6.28;;;;;;;-144.57;100.00;62443.72;4919841;29;20524;-73
2022/12/04 09:26:05;;;;;;;11.07;5.78;;;;;;;-144.57;100.00;62443.72;4953375;29;20039;-75
2022/12/04 09:28:33;;;;;;;11.02;5.50;;;;;;;-144.57;100.00;62443.72;4920605;29;20509;-72
2022/12/04 09:31:04;;;;;;;14.95;5.97;;;;;;;-144.57;100.00;62443.72;4953704;29;20098;-73
2022/12/04 09:33:30;;;;;;;19.50;6.18;;;;;;;-144.57;100.00;62443.72;4936409;29;20094;-75
2022/12/04 09:36:01;;;;;;;17.33;6.38;;;;;;;-144.57;100.00;62443.72;4936289;29;20051;-74
2022/12/04 09:38:28;;;;;;;13.68;6.65;;;;;;;-144.57;100.00;62443.72;4919696;29;20046;-74
2022/12/04 09:41:12;;;;;;;9.90;5.97;;;;;;;-144.57;100.00;62443.72;4920705;29;20594;-73
2022/12/04 09:44:10;;;;;;;15.02;6.20;;;;;;;-144.57;100.00;62443.72;4920368;29;20039;-71
2022/12/04 09:46:47;;;;;;;14.68;5.88;;;;;;;-144.57;100.00;62443.72;4952550;29;20535;-72
2022/12/04 09:49:24;;;;;;;11.05;5.32;;;;;;;-144.57;100.00;62443.72;4953153;29;20058;-72
2022/12/04 09:51:51;;;;;;;9.73;5.13;;;;;;;-144.57;100.00;62443.72;4903969;29;20512;-69
2022/12/04 09:54:27;;;;;;;10.85;5.00;;;;;;;-144.57;100.00;62443.72;4920270;29;20048;-74
2022/12/04 09:57:02;;;;;;;10.82;5.40;;;;;;;-144.57;100.00;62443.72;4909327;29;20118;-72
2022/12/04 09:59:30;;;;;;;11.73;5.50;;;;;;;-144.57;100.00;62443.72;4900490;29;20052;-69
2022/12/04 10:02:08;;;;;;;11.10;5.15;;;;;;;-144.57;100.00;62443.72;4915148;29;20075;-71
2022/12/04 10:04:34;;;;;;;11.45;5.82;;;;;;;-144.57;100.00;62443.72;4913738;29;20078;-70
2022/12/04 10:07:32;;;;;;;12.02;5.25;;;;;;;-144.57;100.00;62443.72;4914641;29;20095;-78
2022/12/04 10:10:23;;;;;;;12.18;5.47;;;;;;;-144.57;100.00;62443.72;4882495;29;20102;-73
2022/12/04 10:13:04;;;;;;;10.30;5.13;;;;;;;-144.57;100.00;62443.72;4913543;29;20492;-76
2022/12/04 10:15:46;;;;;;;16.55;6.72;;;;;;;-144.57;100.00;62443.72;4915498;29;20040;-72
2022/12/04 10:18:27;;;;;;;12.35;5.35;;;;;;;-144.57;100.00;62443.72;4897680;29;20135;-72
2022/12/04 10:21:02;;;;;;;11.75;5.72;;;;;;;-144.57;100.00;62443.72;4898069;29;20076;-72
2022/12/04 10:24:00;;;;;;;14.70;5.50;;;;;;;-144.57;100.00;62443.72;4897633;29;20078;-74
2022/12/04 10:26:34;;;;;;;9.43;5.30;;;;;;;-144.57;100.00;62443.72;4897855;29;20040;-73
2022/12/04 10:29:05;;;;;;;13.32;5.75;;;;;;;-144.57;100.00;62443.72;4914765;29;20048;-72
2022/12/04 10:31:32;;;;;;;12.25;5.43;;;;;;;-144.57;100.00;62443.72;4897563;29;20040;-69
2022/12/04 10:34:05;;;;;;;10.38;5.25;;;;;;;-144.57;100.00;62443.72;4914643;29;20597;-72
2022/12/04 10:36:33;;;;;;;10.20;5.22;;;;;;;-144.57;100.00;62443.72;4896979;29;20048;-73
2022/12/04 10:39:06;;;;;;;12.73;5.13;;;;;;;-144.57;100.00;62443.72;4914593;29;20063;-73
2022/12/04 10:42:00;;;;;;;12.73;5.07;;;;;;;-144.57;100.00;62443.72;4866769;29;20388;-71
2022/12/04 10:44:26;;;;;;;9.68;4.28;;;;;;;-144.57;100.00;62443.72;4897868;29;20517;-71
2022/12/04 10:46:59;;;;;;;12.48;5.18;;;;;;;-144.57;100.00;62443.72;4913461;29;20059;-72
2022/12/04 10:49:27;;;;;;;9.70;4.22;;;;;;;-144.57;100.00;62443.72;4915055;29;20048;-69
2022/12/04 10:51:54;;;;;;;12.45;5.65;;;;;;;-144.57;100.00;62443.72;4918875;29;20443;-73
2022/12/04 10:54:39;;;;;;;7.53;4.65;;;;;;;-144.57;100.00;62443.72;4903172;29;20139;-76
2022/12/04 10:57:10;;;;;;;9.38;5.20;;;;;;;-144.57;100.00;62443.72;4905264;29;20108;-75
2022/12/04 11:00:26;;;;;;;9.45;4.78;;;;;;;-144.57;100.00;62443.72;4888719;29;20083;-75
2022/12/04 11:02:54;;;;;;;7.82;4.20;;;;;;;-144.57;100.00;62443.72;4903012;29;20098;-72
2022/12/04 11:05:35;;;;;;;8.85;4.68;;;;;;;-144.57;100.00;62443.72;4902249;29;20048;-71
2022/12/04 11:08:03;;;;;;;9.45;5.05;;;;;;;-144.57;100.00;62443.72;4884905;29;20147;-71
2022/12/04 11:10:39;;;;;;;8.07;4.72;;;;;;;-144.57;100.00;62443.72;4901051;29;20047;-71
2022/12/04 11:13:09;;;;;;;11.52;4.70;;;;;;;-144.57;100.00;62443.72;4918428;29;20043;-70
2022/12/04 11:15:47;;;;;;;11.32;5.30;;;;;;;-144.57;100.00;62443.72;4885932;29;20139;-72
2022/12/04 11:18:34;;;;;;;9.88;5.13;;;;;;;-144.57;100.00;62443.72;4912744;29;20446;-70
2022/12/04 11:21:09;;;;;;;10.82;4.60;;;;;;;-144.57;100.00;62443.72;4916954;29;20048;-69
2022/12/04 11:23:48;;;;;;;7.63;4.55;;;;;;;-144.57;100.00;62443.72;4917320;29;20048;-68
2022/12/04 11:26:16;;;;;;;10.77;4.53;;;;;;;-144.57;100.00;62443.72;4886348;29;20131;-71
2022/12/04 11:28:49;;;;;;;6.63;4.13;;;;;;;-144.57;100.00;62443.72;4901833;29;20493;-71